createdAt,value
2018-02-08T00:00:48.548Z,2.6
2018-02-08T00:01:50.973Z,2.6
2018-02-08T00:02:53.678Z,2.6
2018-02-08T00:03:56.090Z,2.6
2018-02-08T00:04:58.502Z,2.6
2018-02-08T00:06:00.914Z,2.7
2018-02-08T00:07:03.614Z,2.7
2018-02-08T00:08:06.028Z,2.7
2018-02-08T00:09:08.440Z,2.7
2018-02-08T00:10:10.856Z,2.7
2018-02-08T00:11:13.286Z,2.7
2018-02-08T00:12:15.694Z,2.7
2018-02-08T00:13:18.104Z,2.7
2018-02-08T00:14:20.522Z,2.7
2018-02-08T00:15:22.937Z,2.7
2018-02-08T00:16:25.353Z,2.7
2018-02-08T00:17:27.769Z,2.7
2018-02-08T00:18:30.200Z,2.7
2018-02-08T00:19:32.611Z,2.7
2018-02-08T00:20:35.046Z,2.7
2018-02-08T00:21:37.463Z,2.7
2018-02-08T00:22:39.881Z,2.7
2018-02-08T00:23:42.297Z,2.7
2018-02-08T00:24:44.710Z,2.7
2018-02-08T00:25:47.122Z,2.7
2018-02-08T00:26:49.549Z,2.7
2018-02-08T00:27:51.958Z,2.6
2018-02-08T00:28:54.375Z,2.6
2018-02-08T00:29:57.659Z,2.6
2018-02-08T00:31:00.077Z,2.6
2018-02-08T00:32:02.787Z,2.6
2018-02-08T00:33:05.213Z,2.6
2018-02-08T00:34:07.621Z,2.6
2018-02-08T00:35:10.040Z,2.6
2018-02-08T00:36:12.454Z,2.6
2018-02-08T00:37:14.875Z,2.6
2018-02-08T00:38:17.291Z,2.5
2018-02-08T00:39:19.715Z,2.6
2018-02-08T00:40:22.126Z,2.6
2018-02-08T00:41:24.548Z,2.5
2018-02-08T00:42:26.958Z,2.6
2018-02-08T00:43:29.378Z,2.6
2018-02-08T00:44:31.780Z,2.5
2018-02-08T00:45:34.194Z,2.6
2018-02-08T00:46:36.613Z,2.5
2018-02-08T00:47:39.030Z,2.6
2018-02-08T00:48:41.444Z,2.6
2018-02-08T00:49:43.866Z,2.6
2018-02-08T00:50:46.275Z,2.5
2018-02-08T00:51:48.992Z,2.6
2018-02-08T00:52:51.410Z,2.5
2018-02-08T00:53:53.815Z,2.5
2018-02-08T00:54:56.233Z,2.5
2018-02-08T00:55:58.926Z,2.5
2018-02-08T00:57:01.338Z,2.5
2018-02-08T00:58:03.754Z,2.5
2018-02-08T00:59:06.157Z,2.5
2018-02-08T01:00:08.576Z,2.5
2018-02-08T01:01:11.287Z,2.5
2018-02-08T01:02:13.705Z,2.5
2018-02-08T01:03:16.115Z,2.5
2018-02-08T01:04:18.536Z,2.4
2018-02-08T01:05:21.240Z,2.5
2018-02-08T01:06:23.662Z,2.5
2018-02-08T01:07:26.080Z,2.4
2018-02-08T01:08:28.486Z,2.4
2018-02-08T01:09:30.903Z,2.4
2018-02-08T01:10:33.324Z,2.4
2018-02-08T01:11:36.029Z,2.4
2018-02-08T01:12:38.438Z,2.4
2018-02-08T01:13:40.864Z,2.4
2018-02-08T01:14:43.284Z,2.4
2018-02-08T01:15:45.697Z,2.4
2018-02-08T01:16:48.408Z,2.4
2018-02-08T01:17:50.838Z,2.4
2018-02-08T01:18:53.245Z,2.4
2018-02-08T01:19:55.965Z,2.4
2018-02-08T01:20:58.383Z,2.4
2018-02-08T01:22:01.079Z,2.4
2018-02-08T01:23:03.506Z,2.4
2018-02-08T01:24:05.921Z,2.4
2018-02-08T01:25:08.327Z,2.4
2018-02-08T01:26:10.752Z,2.4
2018-02-08T01:27:13.439Z,2.4
2018-02-08T01:28:15.855Z,2.4
2018-02-08T01:29:18.269Z,2.4
2018-02-08T01:30:20.690Z,2.3
2018-02-08T01:31:23.103Z,2.3
2018-02-08T01:32:25.526Z,2.3
2018-02-08T01:33:27.928Z,2.3
2018-02-08T01:34:30.357Z,2.3
2018-02-08T01:35:32.768Z,2.4
2018-02-08T01:36:35.184Z,2.3
2018-02-08T01:37:37.600Z,2.4
2018-02-08T01:38:40.017Z,2.4
2018-02-08T01:39:42.435Z,2.3
2018-02-08T01:40:44.851Z,2.4
2018-02-08T01:41:47.278Z,2.4
2018-02-08T01:42:49.981Z,2.3
2018-02-08T01:43:52.393Z,2.3
2018-02-08T01:44:54.809Z,2.3
2018-02-08T01:45:57.229Z,2.3
2018-02-08T01:46:59.641Z,2.3
2018-02-08T01:48:02.351Z,2.2
2018-02-08T01:49:04.752Z,2.3
2018-02-08T01:50:07.163Z,2.2
2018-02-08T01:51:09.590Z,2.2
2018-02-08T01:52:12.006Z,2.2
2018-02-08T01:53:14.699Z,2.2
2018-02-08T01:54:17.116Z,2.2
2018-02-08T01:55:19.832Z,2.2
2018-02-08T01:56:22.251Z,2.2
2018-02-08T01:57:24.667Z,2.2
2018-02-08T01:58:27.370Z,2.2
2018-02-08T01:59:30.073Z,2.2
2018-02-08T02:00:32.492Z,2.3
2018-02-08T02:01:34.914Z,2.2
2018-02-08T02:02:37.319Z,2.2
2018-02-08T02:03:40.013Z,2.2
2018-02-08T02:04:42.712Z,2.2
2018-02-08T02:05:45.134Z,2.2
2018-02-08T02:06:47.548Z,2.2
2018-02-08T02:07:50.249Z,2.2
2018-02-08T02:08:52.659Z,2.2
2018-02-08T02:09:55.378Z,2.2
2018-02-08T02:10:57.796Z,2.2
2018-02-08T02:12:00.206Z,2.2
2018-02-08T02:13:02.634Z,2.2
2018-02-08T02:14:05.049Z,2.2
2018-02-08T02:15:07.456Z,2.2
2018-02-08T02:16:09.882Z,2.2
2018-02-08T02:17:12.294Z,2.2
2018-02-08T02:18:14.705Z,2.2
2018-02-08T02:19:17.114Z,2.2
2018-02-08T02:20:19.528Z,2.1
2018-02-08T02:21:21.941Z,2.2
2018-02-08T02:22:24.362Z,2.2
2018-02-08T02:23:26.774Z,2.1
2018-02-08T02:24:29.189Z,2.1
2018-02-08T02:25:31.897Z,2.1
2018-02-08T02:26:34.587Z,2.1
2018-02-08T02:27:37.304Z,2.1
2018-02-08T02:28:39.718Z,2.1
2018-02-08T02:29:42.137Z,2
2018-02-08T02:30:44.553Z,2
2018-02-08T02:31:46.967Z,2
2018-02-08T02:32:49.376Z,2
2018-02-08T02:33:51.801Z,2
2018-02-08T02:34:54.212Z,2
2018-02-08T02:35:56.623Z,2
2018-02-08T02:36:59.047Z,2
2018-02-08T02:38:01.469Z,2
2018-02-08T02:39:03.887Z,1.9
2018-02-08T02:40:06.314Z,1.9
2018-02-08T02:41:08.720Z,1.9
2018-02-08T02:42:11.133Z,1.9
2018-02-08T02:43:13.550Z,1.9
2018-02-08T02:44:15.961Z,1.9
2018-02-08T02:45:18.373Z,1.9
2018-02-08T02:46:21.365Z,1.8
2018-02-08T02:47:23.769Z,1.8
2018-02-08T02:48:26.196Z,1.8
2018-02-08T02:49:28.606Z,1.8
2018-02-08T02:50:31.027Z,1.8
2018-02-08T02:51:33.445Z,1.8
2018-02-08T02:52:35.863Z,1.7
2018-02-08T02:53:38.277Z,1.7
2018-02-08T02:54:40.698Z,1.7
2018-02-08T02:55:43.693Z,1.7
2018-02-08T02:56:46.115Z,1.7
2018-02-08T02:57:48.815Z,1.7
2018-02-08T02:58:51.525Z,1.7
2018-02-08T02:59:53.932Z,1.7
2018-02-08T03:00:56.345Z,1.7
2018-02-08T03:01:58.761Z,1.7
2018-02-08T03:03:01.174Z,1.7
2018-02-08T03:04:03.874Z,1.7
2018-02-08T03:05:06.287Z,1.7
2018-02-08T03:06:08.702Z,1.7
2018-02-08T03:07:11.418Z,1.6
2018-02-08T03:08:13.835Z,1.7
2018-02-08T03:09:16.244Z,1.6
2018-02-08T03:10:18.655Z,1.7
2018-02-08T03:11:21.078Z,1.6
2018-02-08T03:12:23.479Z,1.6
2018-02-08T03:13:25.887Z,1.7
2018-02-08T03:14:28.316Z,1.7
2018-02-08T03:15:30.733Z,1.7
2018-02-08T03:16:33.148Z,1.7
2018-02-08T03:17:35.875Z,1.7
2018-02-08T03:18:38.290Z,1.7
2018-02-08T03:19:40.718Z,1.6
2018-02-08T03:20:43.142Z,1.6
2018-02-08T03:21:46.119Z,1.6
2018-02-08T03:22:48.534Z,1.6
2018-02-08T03:23:50.953Z,1.6
2018-02-08T03:24:53.366Z,1.6
2018-02-08T03:25:55.788Z,1.5
2018-02-08T03:26:58.192Z,1.5
2018-02-08T03:28:00.902Z,1.5
2018-02-08T03:29:03.328Z,1.5
2018-02-08T03:30:05.740Z,1.5
2018-02-08T03:31:08.436Z,1.5
2018-02-08T03:32:10.857Z,1.5
2018-02-08T03:33:13.267Z,1.5
2018-02-08T03:34:15.677Z,1.4
2018-02-08T03:35:18.092Z,1.4
2018-02-08T03:36:20.507Z,1.3
2018-02-08T03:37:22.923Z,1.4
2018-02-08T03:38:25.630Z,1.3
2018-02-08T03:39:28.042Z,1.3
2018-02-08T03:40:30.452Z,1.3
2018-02-08T03:41:32.869Z,1.3
2018-02-08T03:42:35.282Z,1.3
2018-02-08T03:43:37.691Z,1.3
2018-02-08T03:44:40.390Z,1.3
2018-02-08T03:45:42.814Z,1.3
2018-02-08T03:46:45.221Z,1.2
2018-02-08T03:47:47.717Z,1.2
2018-02-08T03:48:50.438Z,1.2
2018-02-08T03:49:52.853Z,1.2
2018-02-08T03:50:55.277Z,1.2
2018-02-08T03:51:57.687Z,1.2
2018-02-08T03:53:00.386Z,1.2
2018-02-08T03:54:02.805Z,1.1
2018-02-08T03:55:05.206Z,1.1
2018-02-08T03:56:07.618Z,1.1
2018-02-08T03:57:10.040Z,1.1
2018-02-08T03:58:12.461Z,1.1
2018-02-08T03:59:14.868Z,1.1
2018-02-08T04:00:17.289Z,1.1
2018-02-08T04:01:19.703Z,1.1
2018-02-08T04:02:22.122Z,1.1
2018-02-08T04:03:24.544Z,1
2018-02-08T04:04:26.948Z,1.1
2018-02-08T04:05:29.361Z,1
2018-02-08T04:06:31.783Z,1
2018-02-08T04:07:34.197Z,1
2018-02-08T04:08:36.607Z,1
2018-02-08T04:09:39.034Z,1
2018-02-08T04:10:41.450Z,1
2018-02-08T04:11:43.855Z,0.9
2018-02-08T04:12:46.271Z,0.9
2018-02-08T04:13:48.971Z,0.9
2018-02-08T04:14:51.378Z,0.9
2018-02-08T04:15:53.800Z,0.9
2018-02-08T04:16:56.211Z,0.9
2018-02-08T04:17:58.625Z,0.9
2018-02-08T04:19:01.046Z,0.9
2018-02-08T04:20:03.738Z,0.9
2018-02-08T04:21:06.151Z,0.9
2018-02-08T04:22:08.569Z,0.9
2018-02-08T04:23:10.986Z,0.9
2018-02-08T04:24:13.394Z,0.8
2018-02-08T04:25:15.808Z,0.9
2018-02-08T04:26:18.225Z,0.8
2018-02-08T04:27:20.646Z,0.8
2018-02-08T04:28:23.065Z,0.8
2018-02-08T04:29:25.481Z,0.8
2018-02-08T04:30:27.892Z,0.8
2018-02-08T04:31:30.606Z,0.9
2018-02-08T04:32:33.294Z,0.8
2018-02-08T04:33:35.706Z,0.9
2018-02-08T04:34:38.121Z,0.9
2018-02-08T04:35:40.532Z,0.9
2018-02-08T04:36:42.941Z,0.9
2018-02-08T04:37:45.361Z,0.9
2018-02-08T04:38:47.767Z,0.9
2018-02-08T04:39:50.189Z,0.9
2018-02-08T04:40:52.605Z,0.9
2018-02-08T04:41:55.021Z,0.9
2018-02-08T04:42:57.438Z,0.9
2018-02-08T04:44:00.143Z,0.9
2018-02-08T04:45:02.542Z,0.9
2018-02-08T04:46:04.963Z,0.9
2018-02-08T04:47:07.356Z,0.9
2018-02-08T04:48:09.774Z,0.9
2018-02-08T04:49:12.186Z,0.9
2018-02-08T04:50:14.601Z,0.9
2018-02-08T04:51:17.017Z,0.9
2018-02-08T04:52:19.434Z,0.9
2018-02-08T04:53:21.839Z,0.9
2018-02-08T04:54:24.259Z,0.9
2018-02-08T04:55:26.677Z,0.9
2018-02-08T04:56:29.092Z,0.9
2018-02-08T04:57:31.501Z,0.9
2018-02-08T04:58:33.915Z,0.9
2018-02-08T04:59:36.317Z,0.9
2018-02-08T05:00:38.744Z,0.8
2018-02-08T05:01:41.153Z,0.8
2018-02-08T05:02:43.574Z,0.8
2018-02-08T05:03:45.977Z,0.8
2018-02-08T05:04:48.394Z,0.8
2018-02-08T05:05:51.080Z,0.8
2018-02-08T05:06:53.502Z,0.8
2018-02-08T05:07:55.911Z,0.8
2018-02-08T05:08:58.332Z,0.8
2018-02-08T05:10:00.744Z,0.8
2018-02-08T05:11:03.169Z,0.8
2018-02-08T05:12:05.582Z,0.8
2018-02-08T05:13:07.986Z,0.8
2018-02-08T05:14:10.399Z,0.8
2018-02-08T05:15:12.813Z,0.8
2018-02-08T05:16:15.226Z,0.8
2018-02-08T05:17:17.927Z,0.8
2018-02-08T05:18:20.614Z,0.8
2018-02-08T05:19:23.033Z,0.8
2018-02-08T05:20:25.746Z,0.8
2018-02-08T05:21:28.159Z,0.7
2018-02-08T05:22:30.568Z,0.7
2018-02-08T05:23:32.984Z,0.7
2018-02-08T05:24:35.389Z,0.7
2018-02-08T05:25:38.106Z,0.7
2018-02-08T05:26:40.519Z,0.7
2018-02-08T05:27:42.921Z,0.7
2018-02-08T05:28:45.339Z,0.6
2018-02-08T05:29:47.750Z,0.7
2018-02-08T05:30:50.449Z,0.7
2018-02-08T05:31:52.864Z,0.6
2018-02-08T05:32:55.275Z,0.7
2018-02-08T05:33:57.683Z,0.7
2018-02-08T05:35:00.106Z,0.7
2018-02-08T05:36:02.519Z,0.6
2018-02-08T05:37:04.935Z,0.6
2018-02-08T05:38:07.338Z,0.6
2018-02-08T05:39:10.060Z,0.7
2018-02-08T05:40:12.468Z,0.7
2018-02-08T05:41:14.885Z,0.7
2018-02-08T05:42:17.306Z,0.7
2018-02-08T05:43:19.991Z,0.7
2018-02-08T05:44:22.692Z,0.7
2018-02-08T05:45:25.402Z,0.7
2018-02-08T05:46:28.081Z,0.7
2018-02-08T05:47:30.781Z,0.7
2018-02-08T05:48:33.195Z,0.8
2018-02-08T05:49:35.608Z,0.8
2018-02-08T05:50:38.020Z,0.8
2018-02-08T05:51:40.436Z,0.8
2018-02-08T05:52:42.848Z,0.8
2018-02-08T05:53:45.268Z,0.8
2018-02-08T05:54:47.681Z,0.8
2018-02-08T05:55:50.379Z,0.8
2018-02-08T05:56:52.790Z,0.8
2018-02-08T05:57:55.197Z,0.8
2018-02-08T05:58:57.884Z,0.9
2018-02-08T06:00:00.304Z,0.9
2018-02-08T06:01:02.706Z,0.9
2018-02-08T06:02:05.400Z,0.9
2018-02-08T06:03:08.096Z,0.9
2018-02-08T06:04:10.511Z,0.9
2018-02-08T06:05:12.927Z,0.9
2018-02-08T06:06:15.341Z,0.9
2018-02-08T06:07:17.759Z,0.9
2018-02-08T06:08:20.171Z,0.9
2018-02-08T06:09:22.583Z,0.9
2018-02-08T06:10:25.289Z,0.8
2018-02-08T06:11:27.706Z,0.8
2018-02-08T06:12:30.113Z,0.8
2018-02-08T06:13:32.531Z,0.8
2018-02-08T06:14:34.948Z,0.8
2018-02-08T06:15:37.365Z,0.8
2018-02-08T06:16:39.776Z,0.8
2018-02-08T06:17:42.181Z,0.8
2018-02-08T06:18:44.599Z,0.8
2018-02-08T06:19:47.009Z,0.8
2018-02-08T06:20:49.431Z,0.8
2018-02-08T06:21:51.841Z,0.8
2018-02-08T06:22:54.243Z,0.9
2018-02-08T06:23:56.652Z,0.8
2018-02-08T06:24:59.077Z,0.9
2018-02-08T06:26:01.485Z,0.9
2018-02-08T06:27:03.892Z,0.9
2018-02-08T06:28:06.308Z,0.9
2018-02-08T06:29:08.716Z,0.9
2018-02-08T06:30:11.137Z,0.9
2018-02-08T06:31:13.551Z,0.9
2018-02-08T06:32:15.956Z,0.9
2018-02-08T06:33:18.371Z,0.9
2018-02-08T06:34:20.786Z,0.9
2018-02-08T06:35:23.211Z,0.9
2018-02-08T06:36:25.623Z,0.9
2018-02-08T06:37:28.031Z,0.9
2018-02-08T06:38:30.450Z,0.9
2018-02-08T06:39:32.864Z,1
2018-02-08T06:40:35.275Z,1
2018-02-08T06:41:37.680Z,0.9
2018-02-08T06:42:40.094Z,1
2018-02-08T06:43:42.530Z,1
2018-02-08T06:44:44.937Z,1
2018-02-08T06:45:47.363Z,1
2018-02-08T06:46:49.764Z,1
2018-02-08T06:47:52.179Z,1
2018-02-08T06:48:54.598Z,1
2018-02-08T06:49:57.314Z,1
2018-02-08T06:50:59.717Z,1
2018-02-08T06:52:02.136Z,1
2018-02-08T06:53:05.127Z,1
2018-02-08T06:54:07.819Z,1
2018-02-08T06:55:10.516Z,1
2018-02-08T06:56:13.225Z,1
2018-02-08T06:57:15.640Z,1
2018-02-08T06:58:18.066Z,1
2018-02-08T06:59:20.477Z,1
2018-02-08T07:00:22.898Z,1
2018-02-08T07:01:25.877Z,1
2018-02-08T07:02:28.292Z,1
2018-02-08T07:03:30.710Z,1
2018-02-08T07:04:33.127Z,1
2018-02-08T07:05:35.522Z,1
2018-02-08T07:06:37.938Z,1
2018-02-08T07:07:40.642Z,1
2018-02-08T07:08:43.049Z,1
2018-02-08T07:09:45.461Z,1
2018-02-08T07:10:47.873Z,1
2018-02-08T07:11:50.287Z,1
2018-02-08T07:12:52.697Z,1
2018-02-08T07:13:55.457Z,1
2018-02-08T07:14:57.820Z,1.1
2018-02-08T07:16:00.236Z,1.1
2018-02-08T07:17:02.642Z,1.1
2018-02-08T07:18:05.064Z,1.1
2018-02-08T07:19:07.521Z,1
2018-02-08T07:20:09.887Z,1.1
2018-02-08T07:21:12.294Z,1
2018-02-08T07:22:14.713Z,1.1
2018-02-08T07:23:17.126Z,1.1
2018-02-08T07:24:19.541Z,1.1
2018-02-08T07:25:21.951Z,1.1
2018-02-08T07:26:24.364Z,1.1
2018-02-08T07:27:26.779Z,1.2
2018-02-08T07:28:29.489Z,1.2
2018-02-08T07:29:31.892Z,1.3
2018-02-08T07:30:34.346Z,1.2
2018-02-08T07:31:36.729Z,1.3
2018-02-08T07:32:39.435Z,1.3
2018-02-08T07:33:41.845Z,1.3
2018-02-08T07:34:44.259Z,1.3
2018-02-08T07:35:46.668Z,1.4
2018-02-08T07:36:49.370Z,1.5
2018-02-08T07:37:51.787Z,1.5
2018-02-08T07:38:54.206Z,1.6
2018-02-08T07:39:56.617Z,1.7
2018-02-08T07:40:59.036Z,1.9
2018-02-08T07:42:01.444Z,2
2018-02-08T07:43:04.164Z,2.2
2018-02-08T07:44:06.574Z,2.3
2018-02-08T07:45:08.992Z,2.5
2018-02-08T07:46:11.410Z,2.6
2018-02-08T07:47:13.830Z,2.7
2018-02-08T07:48:16.253Z,2.9
2018-02-08T07:49:18.964Z,3
2018-02-08T07:50:21.378Z,3.2
2018-02-08T07:51:23.799Z,3.4
2018-02-08T07:52:26.214Z,3.5
2018-02-08T07:53:28.635Z,3.6
2018-02-08T07:54:31.348Z,3.8
2018-02-08T07:55:33.772Z,3.9
2018-02-08T07:56:36.526Z,4
2018-02-08T07:57:39.237Z,4.2
2018-02-08T07:58:41.648Z,4.3
2018-02-08T07:59:44.070Z,4.5
2018-02-08T08:00:46.491Z,4.6
2018-02-08T08:01:48.912Z,4.8
2018-02-08T08:02:51.341Z,4.9
2018-02-08T08:03:54.119Z,5
2018-02-08T08:04:56.489Z,5.1
2018-02-08T08:05:58.910Z,5.3
2018-02-08T08:07:01.638Z,5.4
2018-02-08T08:08:04.344Z,5.5
2018-02-08T08:09:06.768Z,5.7
2018-02-08T08:10:09.178Z,5.8
2018-02-08T08:11:11.598Z,5.9
2018-02-08T08:12:14.016Z,6.1
2018-02-08T08:13:16.735Z,6.2
2018-02-08T08:14:19.426Z,6.4
2018-02-08T08:15:21.845Z,6.5
2018-02-08T08:16:24.572Z,6.6
2018-02-08T08:17:26.998Z,6.7
2018-02-08T08:18:29.421Z,6.9
2018-02-08T08:19:32.420Z,7
2018-02-08T08:20:34.844Z,7.1
2018-02-08T08:21:37.282Z,7.2
2018-02-08T08:22:39.709Z,7.3
2018-02-08T08:23:42.130Z,7.5
2018-02-08T08:24:44.552Z,7.6
2018-02-08T08:25:46.982Z,7.7
2018-02-08T08:26:49.405Z,7.8
2018-02-08T08:27:52.131Z,8
2018-02-08T08:28:54.539Z,8.1
2018-02-08T08:29:56.964Z,8.3
2018-02-08T08:30:59.401Z,8.4
2018-02-08T08:32:02.112Z,8.5
2018-02-08T08:33:04.539Z,8.7
2018-02-08T08:34:06.969Z,8.8
2018-02-08T08:35:09.402Z,8.9
2018-02-08T08:36:11.819Z,9
2018-02-08T08:37:14.522Z,9.2
2018-02-08T08:38:16.961Z,9.3
2018-02-08T08:39:19.382Z,9.4
2018-02-08T08:40:21.803Z,9.6
2018-02-08T08:41:24.226Z,9.7
2018-02-08T08:42:26.648Z,9.8
2018-02-08T08:43:29.080Z,9.9
2018-02-08T08:44:31.535Z,10.1
2018-02-08T08:45:33.932Z,10.2
2018-02-08T08:46:36.363Z,10.4
2018-02-08T08:47:38.793Z,10.5
2018-02-08T08:48:41.225Z,10.6
2018-02-08T08:49:43.656Z,10.7
2018-02-08T08:50:46.086Z,10.8
2018-02-08T08:51:48.516Z,11
2018-02-08T08:52:50.945Z,11.1
2018-02-08T08:53:53.371Z,11.2
2018-02-08T08:54:55.805Z,11.3
2018-02-08T08:55:58.230Z,11.4
2018-02-08T08:57:00.664Z,11.5
2018-02-08T08:58:03.357Z,11.7
2018-02-08T08:59:05.790Z,11.8
2018-02-08T09:00:08.227Z,11.8
2018-02-08T09:01:10.656Z,12
2018-02-08T09:02:13.088Z,12.1
2018-02-08T09:03:15.519Z,12.1
2018-02-08T09:04:17.947Z,12.2
2018-02-08T09:05:20.382Z,12.3
2018-02-08T09:06:22.816Z,12.4
2018-02-08T09:07:25.246Z,12.5
2018-02-08T09:08:27.683Z,12.6
2018-02-08T09:09:30.424Z,12.7
2018-02-08T09:10:32.850Z,12.8
2018-02-08T09:11:35.278Z,12.8
2018-02-08T09:12:37.710Z,12.9
2018-02-08T09:13:40.423Z,13
2018-02-08T09:14:42.856Z,13.1
2018-02-08T09:15:45.294Z,13.2
2018-02-08T09:16:47.714Z,13.3
2018-02-08T09:17:50.155Z,13.3
2018-02-08T09:18:52.576Z,13.4
2018-02-08T09:19:55.000Z,13.4
2018-02-08T09:20:57.723Z,13.5
2018-02-08T09:22:00.154Z,13.5
2018-02-08T09:23:02.857Z,13.6
2018-02-08T09:24:05.288Z,13.6
2018-02-08T09:25:07.714Z,13.7
2018-02-08T09:26:10.147Z,13.7
2018-02-08T09:27:12.580Z,13.8
2018-02-08T09:28:15.003Z,13.9
2018-02-08T09:29:17.435Z,13.9
2018-02-08T09:30:19.881Z,14
2018-02-08T09:31:22.598Z,14.1
2018-02-08T09:32:25.635Z,14.1
2018-02-08T09:33:28.023Z,14.2
2018-02-08T09:34:30.736Z,14.3
2018-02-08T09:35:33.454Z,14.3
2018-02-08T09:36:35.879Z,14.4
2018-02-08T09:37:38.325Z,14.4
2018-02-08T09:38:40.758Z,14.4
2018-02-08T09:39:43.766Z,14.4
2018-02-08T09:40:46.199Z,14.4
2018-02-08T09:41:48.625Z,14.4
2018-02-08T09:42:51.060Z,14.5
2018-02-08T09:43:53.499Z,14.6
2018-02-08T09:44:55.922Z,14.7
2018-02-08T09:45:58.352Z,14.7
2018-02-08T09:47:00.791Z,14.7
2018-02-08T09:48:03.226Z,14.8
2018-02-08T09:49:05.653Z,14.8
2018-02-08T09:50:08.085Z,14.8
2018-02-08T09:51:10.523Z,14.8
2018-02-08T09:52:12.955Z,14.8
2018-02-08T09:53:15.386Z,14.8
2018-02-08T09:54:17.811Z,14.8
2018-02-08T09:55:20.244Z,14.8
2018-02-08T09:56:22.689Z,14.9
2018-02-08T09:57:25.122Z,14.9
2018-02-08T09:58:27.555Z,15
2018-02-08T09:59:29.985Z,15
2018-02-08T10:00:32.714Z,15
2018-02-08T10:01:35.156Z,15
2018-02-08T10:02:37.592Z,15.1
2018-02-08T10:03:40.290Z,15.1
2018-02-08T10:04:42.730Z,15.2
2018-02-08T10:05:45.162Z,15.2
2018-02-08T10:06:47.603Z,15.3
2018-02-08T10:07:50.315Z,15.3
2018-02-08T10:08:52.763Z,15.4
2018-02-08T10:09:55.211Z,15.4
2018-02-08T10:10:57.624Z,15.5
2018-02-08T10:12:00.066Z,15.5
2018-02-08T10:13:02.497Z,15.5
2018-02-08T10:14:04.929Z,15.6
2018-02-08T10:15:07.363Z,15.7
2018-02-08T10:16:09.786Z,15.7
2018-02-08T10:17:12.217Z,15.8
2018-02-08T10:18:14.662Z,15.9
2018-02-08T10:19:17.085Z,16
2018-02-08T10:20:19.812Z,16.1
2018-02-08T10:21:22.242Z,16.2
2018-02-08T10:22:24.675Z,16.3
2018-02-08T10:23:27.408Z,16.3
2018-02-08T10:24:29.844Z,16.4
2018-02-08T10:25:32.272Z,16.4
2018-02-08T10:26:34.715Z,16.4
2018-02-08T10:27:37.142Z,16.4
2018-02-08T10:28:39.883Z,16.5
2018-02-08T10:29:42.317Z,16.5
2018-02-08T10:30:45.048Z,16.6
2018-02-08T10:31:47.875Z,16.5
2018-02-08T10:32:50.312Z,16.5
2018-02-08T10:33:52.738Z,16.5
2018-02-08T10:34:55.187Z,16.5
2018-02-08T10:35:57.909Z,16.5
2018-02-08T10:37:00.340Z,16.5
2018-02-08T10:38:02.776Z,16.6
2018-02-08T10:39:05.214Z,16.6
2018-02-08T10:40:07.643Z,16.6
2018-02-08T10:41:10.082Z,16.6
2018-02-08T10:42:12.496Z,16.6
2018-02-08T10:43:14.930Z,16.5
2018-02-08T10:44:17.381Z,16.4
2018-02-08T10:45:20.096Z,16.3
2018-02-08T10:46:22.527Z,16.2
2018-02-08T10:47:24.962Z,16.2
2018-02-08T10:48:27.406Z,16.2
2018-02-08T10:49:29.844Z,16.1
2018-02-08T10:50:32.581Z,16.2
2018-02-08T10:51:35.006Z,16.2
2018-02-08T10:52:37.440Z,16.3
2018-02-08T10:53:39.889Z,16.3
2018-02-08T10:54:42.322Z,16.4
2018-02-08T10:55:44.757Z,16.4
2018-02-08T10:56:47.469Z,16.4
2018-02-08T10:57:49.904Z,16.5
2018-02-08T10:58:52.347Z,16.5
2018-02-08T10:59:54.784Z,16.6
2018-02-08T11:00:57.210Z,16.6
2018-02-08T11:01:59.941Z,16.5
2018-02-08T11:03:02.377Z,16.6
2018-02-08T11:04:04.817Z,16.6
2018-02-08T11:05:07.249Z,16.6
2018-02-08T11:06:09.694Z,16.7
2018-02-08T11:07:12.125Z,16.7
2018-02-08T11:08:14.558Z,16.8
2018-02-08T11:09:16.988Z,16.8
2018-02-08T11:10:19.417Z,16.8
2018-02-08T11:11:21.854Z,16.8
2018-02-08T11:12:24.285Z,16.7
2018-02-08T11:13:27.000Z,16.7
2018-02-08T11:14:29.443Z,16.7
2018-02-08T11:15:31.888Z,16.7
2018-02-08T11:16:34.321Z,16.7
2018-02-08T11:17:37.066Z,16.7
2018-02-08T11:18:39.512Z,16.7
2018-02-08T11:19:41.938Z,16.7
2018-02-08T11:20:44.371Z,16.6
2018-02-08T11:21:47.099Z,16.6
2018-02-08T11:22:49.532Z,16.6
2018-02-08T11:23:51.967Z,16.6
2018-02-08T11:24:54.413Z,16.6
2018-02-08T11:25:56.838Z,16.6
2018-02-08T11:26:59.282Z,16.6
2018-02-08T11:28:01.718Z,16.7
2018-02-08T11:29:04.150Z,16.7
2018-02-08T11:30:06.589Z,16.7
2018-02-08T11:31:09.024Z,16.7
2018-02-08T11:32:11.493Z,16.7
2018-02-08T11:33:14.173Z,16.8
2018-02-08T11:34:16.622Z,16.8
2018-02-08T11:35:19.049Z,16.8
2018-02-08T11:36:21.485Z,16.8
2018-02-08T11:37:23.918Z,16.9
2018-02-08T11:38:26.357Z,16.9
2018-02-08T11:39:28.784Z,16.9
2018-02-08T11:40:31.514Z,17
2018-02-08T11:41:33.937Z,17
2018-02-08T11:42:36.731Z,17.1
2018-02-08T11:43:39.126Z,17.2
2018-02-08T11:44:41.563Z,17.2
2018-02-08T11:45:44.007Z,17.3
2018-02-08T11:46:46.453Z,17.3
2018-02-08T11:47:48.930Z,17.4
2018-02-08T11:48:51.376Z,17.4
2018-02-08T11:49:53.807Z,17.5
2018-02-08T11:50:56.284Z,17.6
2018-02-08T11:51:59.243Z,17.7
2018-02-08T11:53:01.685Z,17.8
2018-02-08T11:54:04.120Z,17.9
2018-02-08T11:55:06.558Z,18.1
2018-02-08T11:56:08.988Z,18.1
2018-02-08T11:57:11.738Z,18.2
2018-02-08T11:58:14.173Z,18.2
2018-02-08T11:59:16.641Z,18.2
2018-02-08T12:00:19.076Z,18.2
2018-02-08T12:01:21.518Z,18.2
2018-02-08T12:02:23.966Z,18.3
2018-02-08T12:03:26.401Z,18.3
2018-02-08T12:04:28.832Z,18.4
2018-02-08T12:05:31.271Z,18.4
2018-02-08T12:06:33.761Z,18.5
2018-02-08T12:07:36.131Z,18.5
2018-02-08T12:08:38.572Z,18.5
2018-02-08T12:09:41.014Z,18.6
2018-02-08T12:10:43.451Z,18.6
2018-02-08T12:11:45.898Z,18.6
2018-02-08T12:12:48.330Z,18.6
2018-02-08T12:13:50.768Z,18.6
2018-02-08T12:14:53.219Z,18.7
2018-02-08T12:15:55.656Z,18.7
2018-02-08T12:16:58.088Z,18.8
2018-02-08T12:18:00.530Z,18.8
2018-02-08T12:19:02.976Z,18.9
2018-02-08T12:20:05.696Z,18.9
2018-02-08T12:21:08.135Z,18.9
2018-02-08T12:22:10.570Z,18.8
2018-02-08T12:23:13.009Z,18.8
2018-02-08T12:24:15.462Z,18.8
2018-02-08T12:25:18.180Z,18.8
2018-02-08T12:26:20.624Z,18.8
2018-02-08T12:27:23.063Z,18.8
2018-02-08T12:28:25.501Z,18.8
2018-02-08T12:29:27.940Z,18.8
2018-02-08T12:30:30.381Z,18.9
2018-02-08T12:31:32.806Z,18.9
2018-02-08T12:32:35.252Z,19
2018-02-08T12:33:37.956Z,19
2018-02-08T12:34:40.398Z,18.9
2018-02-08T12:35:42.838Z,18.9
2018-02-08T12:36:45.306Z,18.9
2018-02-08T12:37:47.723Z,18.8
2018-02-08T12:38:50.165Z,18.7
2018-02-08T12:39:52.591Z,18.7
2018-02-08T12:40:55.038Z,18.6
2018-02-08T12:41:57.470Z,18.6
2018-02-08T12:42:59.912Z,18.6
2018-02-08T12:44:02.355Z,18.5
2018-02-08T12:45:04.792Z,18.5
2018-02-08T12:46:07.233Z,18.5
2018-02-08T12:47:09.672Z,18.5
2018-02-08T12:48:12.102Z,18.5
2018-02-08T12:49:14.548Z,18.5
2018-02-08T12:50:17.032Z,18.5
2018-02-08T12:51:19.422Z,18.5
2018-02-08T12:52:21.855Z,18.5
2018-02-08T12:53:24.303Z,18.5
2018-02-08T12:54:26.736Z,18.5
2018-02-08T12:55:29.189Z,18.5
2018-02-08T12:56:31.624Z,18.5
2018-02-08T12:57:34.061Z,18.5
2018-02-08T12:58:36.498Z,18.6
2018-02-08T12:59:38.933Z,18.6
2018-02-08T13:00:41.373Z,18.6
2018-02-08T13:01:43.817Z,18.6
2018-02-08T13:02:46.256Z,18.7
2018-02-08T13:03:48.695Z,18.7
2018-02-08T13:04:51.137Z,18.7
2018-02-08T13:05:53.578Z,18.8
2018-02-08T13:06:56.026Z,18.8
2018-02-08T13:07:58.772Z,18.9
2018-02-08T13:09:01.208Z,18.9
2018-02-08T13:10:03.637Z,18.9
2018-02-08T13:11:06.075Z,19
2018-02-08T13:12:08.508Z,19
2018-02-08T13:13:10.946Z,19.1
2018-02-08T13:14:13.664Z,19.1
2018-02-08T13:15:16.106Z,19.1
2018-02-08T13:16:18.558Z,19.1
2018-02-08T13:17:20.994Z,19.1
2018-02-08T13:18:23.432Z,19.2
2018-02-08T13:19:25.862Z,19.2
2018-02-08T13:20:28.300Z,19.2
2018-02-08T13:21:31.032Z,19.2
2018-02-08T13:22:33.470Z,19.2
2018-02-08T13:23:35.908Z,19.2
2018-02-08T13:24:38.346Z,19.2
2018-02-08T13:25:40.796Z,19.1
2018-02-08T13:26:43.517Z,19.1
2018-02-08T13:27:45.957Z,19.1
2018-02-08T13:28:48.380Z,19
2018-02-08T13:29:50.823Z,19
2018-02-08T13:30:53.271Z,19
2018-02-08T13:31:55.717Z,19
2018-02-08T13:32:58.142Z,18.9
2018-02-08T13:34:00.581Z,18.8
2018-02-08T13:35:03.022Z,18.7
2018-02-08T13:36:05.453Z,18.7
2018-02-08T13:37:07.890Z,18.6
2018-02-08T13:38:10.328Z,18.6
2018-02-08T13:39:12.762Z,18.5
2018-02-08T13:40:15.209Z,18.5
2018-02-08T13:41:17.649Z,18.4
2018-02-08T13:42:20.373Z,18.4
2018-02-08T13:43:22.815Z,18.3
2018-02-08T13:44:25.254Z,18.3
2018-02-08T13:45:27.975Z,18.2
2018-02-08T13:46:30.417Z,18.1
2018-02-08T13:47:33.123Z,18
2018-02-08T13:48:35.562Z,18
2018-02-08T13:49:37.998Z,17.9
2018-02-08T13:50:40.432Z,17.8
2018-02-08T13:51:42.863Z,17.7
2018-02-08T13:52:45.302Z,17.7
2018-02-08T13:53:47.732Z,17.6
2018-02-08T13:54:50.181Z,17.6
2018-02-08T13:55:52.616Z,17.5
2018-02-08T13:56:55.047Z,17.5
2018-02-08T13:57:57.485Z,17.4
2018-02-08T13:58:59.918Z,17.4
2018-02-08T14:00:02.362Z,17.4
2018-02-08T14:01:04.799Z,17.3
2018-02-08T14:02:07.238Z,17.3
2018-02-08T14:03:09.676Z,17.2
2018-02-08T14:04:12.102Z,17.1
2018-02-08T14:05:14.542Z,17
2018-02-08T14:06:16.977Z,16.9
2018-02-08T14:07:19.420Z,16.8
2018-02-08T14:08:21.862Z,16.7
2018-02-08T14:09:24.298Z,16.5
2018-02-08T14:10:26.736Z,16.4
2018-02-08T14:11:29.184Z,16.3
2018-02-08T14:12:31.900Z,16.1
2018-02-08T14:13:34.338Z,16
2018-02-08T14:14:36.770Z,15.8